Time;durP1;ratioP1;P1;durP2;ratioP2;P2;SDS_P1;SDS_P2;PMS_P1;PMS_P2;Temp;Humidity;BMP_temperature;BMP_pressure;BME280_temperature;BME280_humidity;BME280_pressure;Samples;Min_cycle;Max_cycle;Signal;HPM_P1;HPM_P2
2022/01/02 00:00:22;;;;;;;;;;;6.20;91.60;;;;;;5035101;28;20000;-61
2022/01/02 00:02:51;;;;;;;;;;;6.20;91.80;;;;;;5034869;28;19952;-62
2022/01/02 00:05:19;;;;;;;;;;;6.20;91.30;;;;;;5034788;28;20265;-62
2022/01/02 00:08:00;;;;;;;;;;;6.40;91.30;;;;;;5034878;28;20356;-60
2022/01/02 00:10:26;;;;;;;;;;;6.50;91.10;;;;;;5034933;28;19909;-62
2022/01/02 00:12:56;;;;;;;;;;;6.60;90.90;;;;;;5034777;28;19913;-62
2022/01/02 00:15:22;;;;;;;;;;;6.60;90.50;;;;;;5034740;28;19909;-62
2022/01/02 00:17:49;;;;;;;;;;;6.50;90.50;;;;;;5016935;28;20353;-64
2022/01/02 00:20:18;;;;;;;;;;;6.60;90.60;;;;;;5034543;28;19917;-62
2022/01/02 00:22:48;;;;;;;;;;;6.50;90.60;;;;;;5034662;28;20407;-61
2022/01/02 00:25:25;;;;;;;;;;;6.60;90.60;;;;;;5034490;28;20020;-62
2022/01/02 00:27:51;;;;;;;;;;;6.50;90.50;;;;;;5034538;28;19909;-62
2022/01/02 00:30:17;;;;;;;;;;;6.50;90.60;;;;;;5034339;28;20309;-61
2022/01/02 00:32:43;;;;;;;;;;;6.60;90.60;;;;;;5034579;28;19915;-62
2022/01/02 00:35:08;;;;;;;;;;;6.40;90.40;;;;;;5034493;28;20014;-63
2022/01/02 00:37:34;;;;;;;;;;;6.40;90.40;;;;;;5034266;28;20392;-64
2022/01/02 00:40:00;;;;;;;;;;;6.30;90.20;;;;;;5016573;28;19909;-62
2022/01/02 00:42:29;;;;;;;;;;;6.20;90.20;;;;;;5034098;28;19932;-61
2022/01/02 00:45:00;;;;;;;;;;;6.30;90.20;;;;;;5034126;28;19959;-62
2022/01/02 00:47:46;;;;;;;;;;;6.30;90.00;;;;;;5034200;28;20032;-63
2022/01/02 00:50:11;;;;;;;;;;;6.30;89.60;;;;;;5023327;28;19937;-61
2022/01/02 00:52:40;;;;;;;;;;;6.40;89.00;;;;;;5033946;28;19912;-62
2022/01/02 00:55:07;;;;;;;;;;;6.40;89.00;;;;;;5033901;28;19909;-61
2022/01/02 00:57:34;;;;;;;;;;;6.40;89.30;;;;;;5034049;28;19948;-63
2022/01/02 01:00:01;;;;;;;;;;;6.30;90.00;;;;;;5033979;28;19909;-61
2022/01/02 01:02:30;;;;;;;;;;;6.30;90.10;;;;;;5044700;28;20364;-61
2022/01/02 01:04:58;;;;;;;;;;;6.30;90.10;;;;;;5033543;28;19909;-61
2022/01/02 01:07:25;;;;;;;;;;;6.20;90.20;;;;;;5033746;28;19917;-61
2022/01/02 01:09:52;;;;;;;;;;;6.30;90.30;;;;;;5033537;28;19948;-63
2022/01/02 01:12:18;;;;;;;;;;;6.30;90.50;;;;;;5034004;28;19972;-66
2022/01/02 01:14:46;;;;;;;;;;;6.40;89.90;;;;;;5033646;28;20007;-64
2022/01/02 01:17:14;;;;;;;;;;;6.20;90.20;;;;;;5033595;28;19948;-61
2022/01/02 01:19:40;;;;;;;;;;;6.20;90.20;;;;;;5033663;28;20355;-60
2022/01/02 01:22:05;;;;;;;;;;;6.10;90.00;;;;;;5033606;28;19909;-66
2022/01/02 01:24:34;;;;;;;;;;;6.10;90.00;;;;;;5033437;28;19963;-62
2022/01/02 01:27:01;;;;;;;;;;;6.10;89.70;;;;;;5033472;28;19917;-63
2022/01/02 01:29:27;;;;;;;;;;;6.00;89.70;;;;;;5033531;28;19913;-65
2022/01/02 01:31:53;;;;;;;;;;;6.10;89.10;;;;;;5033696;28;19916;-67
2022/01/02 01:34:18;;;;;;;;;;;5.90;89.30;;;;;;5033275;28;19910;-65
2022/01/02 01:36:44;;;;;;;;;;;5.90;88.80;;;;;;5033245;28;20327;-62
2022/01/02 01:39:09;;;;;;;;;;;6.00;88.50;;;;;;5033645;28;20372;-62
2022/01/02 01:41:37;;;;;;;;;;;5.90;88.40;;;;;;5033234;28;19916;-63
2022/01/02 01:45:03;;;;;;;;;;;5.90;88.50;;;;;;5033277;28;20008;-67
2022/01/02 01:46:55;;;;;;;;;;;5.80;88.50;;;;;;5025031;28;20427;-65
2022/01/02 01:49:22;;;;;;;;;;;5.80;88.00;;;;;;5033194;28;19963;-65
2022/01/02 01:51:48;;;;;;;;;;;5.80;87.90;;;;;;5034246;28;19909;-70
2022/01/02 01:54:14;;;;;;;;;;;5.70;87.40;;;;;;5039802;28;20258;-62
2022/01/02 01:56:40;;;;;;;;;;;5.70;86.90;;;;;;5039743;28;19909;-60
2022/01/02 01:59:06;;;;;;;;;;;5.70;86.80;;;;;;5039987;28;19909;-65
2022/01/02 02:01:31;;;;;;;;;;;5.60;86.60;;;;;;5039721;28;20000;-63
2022/01/02 02:03:57;;;;;;;;;;;5.60;86.40;;;;;;5039429;28;19940;-63
2022/01/02 02:06:23;;;;;;;;;;;5.50;86.10;;;;;;5039754;28;19917;-63
2022/01/02 02:08:52;;;;;;;;;;;5.50;86.30;;;;;;5039741;28;19916;-63
2022/01/02 02:11:18;;;;;;;;;;;5.40;85.90;;;;;;5022478;28;19995;-61
2022/01/02 02:13:44;;;;;;;;;;;5.40;85.80;;;;;;5039737;28;20140;-63
2022/01/02 02:16:10;;;;;;;;;;;5.40;86.00;;;;;;5039579;28;19998;-62
2022/01/02 02:18:35;;;;;;;;;;;5.40;85.80;;;;;;5039525;28;19909;-62
2022/01/02 02:21:01;;;;;;;;;;;5.30;86.10;;;;;;5039450;28;20023;-67
2022/01/02 02:23:27;;;;;;;;;;;5.30;86.00;;;;;;5039670;28;20003;-66
2022/01/02 02:25:52;;;;;;;;;;;5.20;86.10;;;;;;5039679;28;19917;-64
2022/01/02 02:28:18;;;;;;;;;;;5.20;86.80;;;;;;5039425;28;19909;-62
2022/01/02 02:30:45;;;;;;;;;;;5.10;86.40;;;;;;5039567;28;19955;-62
2022/01/02 02:33:11;;;;;;;;;;;5.10;86.20;;;;;;5039419;28;20008;-63
2022/01/02 02:35:37;;;;;;;;;;;5.20;86.90;;;;;;5039584;28;19917;-62
2022/01/02 02:38:04;;;;;;;;;;;5.20;86.80;;;;;;5039394;28;19948;-62
2022/01/02 02:40:30;;;;;;;;;;;5.20;86.70;;;;;;5039376;28;19913;-64
2022/01/02 02:51:11;;;;;;;;;;;5.10;86.10;;;;;;5039911;28;20329;-61
2022/01/02 02:53:38;;;;;;;;;;;5.10;87.40;;;;;;5039105;28;19955;-61
2022/01/02 02:56:14;;;;;;;;;;;5.30;86.80;;;;;;5039084;28;19910;-60
2022/01/02 02:58:41;;;;;;;;;;;5.40;87.30;;;;;;5039135;28;20385;-61
2022/01/02 03:01:08;;;;;;;;;;;5.40;88.20;;;;;;5039424;28;19909;-65
2022/01/02 03:03:33;;;;;;;;;;;5.60;88.80;;;;;;5037206;28;19909;-70
2022/01/02 03:05:59;;;;;;;;;;;5.60;90.20;;;;;;5035736;28;19917;-68
2022/01/02 03:08:25;;;;;;;;;;;5.60;90.20;;;;;;5035991;28;19920;-71
2022/01/02 03:10:51;;;;;;;;;;;5.60;90.50;;;;;;5036001;28;19909;-65
2022/01/02 03:13:16;;;;;;;;;;;5.70;91.00;;;;;;5035907;28;19915;-63
2022/01/02 03:15:42;;;;;;;;;;;5.70;91.10;;;;;;5036010;28;19909;-73
2022/01/02 03:18:07;;;;;;;;;;;5.80;91.30;;;;;;5035790;28;19909;-67
2022/01/02 03:20:33;;;;;;;;;;;5.80;91.20;;;;;;5035982;28;19916;-68
2022/01/02 03:22:58;;;;;;;;;;;5.90;91.10;;;;;;5035736;28;19916;-69
2022/01/02 03:25:24;;;;;;;;;;;6.00;91.00;;;;;;5035541;28;19921;-67
2022/01/02 03:27:49;;;;;;;;;;;6.00;91.00;;;;;;5018038;28;19909;-62
2022/01/02 03:30:15;;;;;;;;;;;6.10;91.00;;;;;;5035645;28;19955;-62
2022/01/02 03:32:41;;;;;;;;;;;6.10;91.00;;;;;;5035759;28;20359;-63
2022/01/02 03:35:07;;;;;;;;;;;6.10;91.00;;;;;;5035636;28;19909;-64
2022/01/02 03:37:33;;;;;;;;;;;6.10;90.90;;;;;;5035333;28;19982;-62
2022/01/02 03:40:00;;;;;;;;;;;6.00;90.70;;;;;;5035731;28;19910;-62
2022/01/02 03:42:25;;;;;;;;;;;6.00;90.50;;;;;;5035459;28;20281;-62
2022/01/02 03:44:51;;;;;;;;;;;5.90;90.80;;;;;;5035577;28;19909;-61
2022/01/02 03:47:16;;;;;;;;;;;5.90;90.90;;;;;;5035455;28;20372;-61
2022/01/02 03:49:42;;;;;;;;;;;5.90;90.90;;;;;;5035372;28;19971;-61
2022/01/02 03:52:08;;;;;;;;;;;6.00;90.90;;;;;;5035357;28;19916;-61
2022/01/02 03:54:33;;;;;;;;;;;6.00;90.80;;;;;;5035147;28;19909;-61
2022/01/02 03:56:59;;;;;;;;;;;6.00;90.40;;;;;;5035042;28;19936;-62
2022/01/02 03:59:25;;;;;;;;;;;6.00;90.80;;;;;;5035087;28;19913;-61
2022/01/02 04:01:50;;;;;;;;;;;6.00;91.10;;;;;;5035095;28;19964;-61
2022/01/02 04:04:17;;;;;;;;;;;5.90;91.10;;;;;;5035186;28;19915;-64
2022/01/02 04:06:42;;;;;;;;;;;5.90;91.30;;;;;;5034878;28;19956;-62
2022/01/02 04:09:08;;;;;;;;;;;6.00;91.10;;;;;;5034767;28;19948;-69
2022/01/02 04:11:33;;;;;;;;;;;6.00;90.40;;;;;;5035110;28;19952;-68
2022/01/02 04:13:59;;;;;;;;;;;5.90;90.10;;;;;;5034891;28;19936;-70
2022/01/02 04:16:24;;;;;;;;;;;5.80;90.10;;;;;;5034461;28;20408;-65
2022/01/02 04:18:50;;;;;;;;;;;5.80;89.70;;;;;;5034965;28;19949;-75
2022/01/02 04:21:16;;;;;;;;;;;5.60;90.50;;;;;;5034621;28;20292;-77
2022/01/02 04:23:41;;;;;;;;;;;5.70;90.50;;;;;;5034756;28;19909;-70
2022/01/02 04:26:07;;;;;;;;;;;5.70;90.50;;;;;;5034615;28;19917;-73
2022/01/02 04:28:32;;;;;;;;;;;5.70;90.20;;;;;;5034451;28;19939;-75
2022/01/02 04:30:58;;;;;;;;;;;5.80;90.30;;;;;;5034790;28;19986;-75
2022/01/02 04:33:24;;;;;;;;;;;5.80;90.40;;;;;;5034426;28;20004;-75
2022/01/02 04:35:49;;;;;;;;;;;5.70;90.30;;;;;;5034405;28;19992;-73
2022/01/02 04:38:17;;;;;;;;;;;5.70;90.50;;;;;;5033549;28;20204;-77
2022/01/02 04:40:42;;;;;;;;;;;5.70;91.00;;;;;;5034262;28;19917;-69
2022/01/02 04:43:08;;;;;;;;;;;5.60;91.10;;;;;;5034351;28;20382;-70
2022/01/02 04:45:34;;;;;;;;;;;5.80;91.20;;;;;;5034204;28;19916;-69
2022/01/02 04:47:59;;;;;;;;;;;5.80;91.10;;;;;;5034556;28;19913;-78
2022/01/02 04:50:25;;;;;;;;;;;5.80;91.20;;;;;;5034351;28;19963;-69
2022/01/02 04:52:50;;;;;;;;;;;5.80;91.00;;;;;;5033909;28;19920;-72
2022/01/02 04:55:16;;;;;;;;;;;5.80;90.80;;;;;;5034049;28;19909;-75
2022/01/02 04:57:42;;;;;;;;;;;5.70;90.50;;;;;;5034070;28;19909;-71
2022/01/02 05:00:08;;;;;;;;;;;5.60;90.60;;;;;;5034184;28;19916;-75
2022/01/02 05:02:33;;;;;;;;;;;5.60;90.70;;;;;;5034098;28;19909;-65
2022/01/02 05:04:59;;;;;;;;;;;5.60;90.70;;;;;;5033660;28;19916;-63
2022/01/02 05:07:25;;;;;;;;;;;5.60;90.50;;;;;;5033710;28;19957;-61
2022/01/02 05:09:50;;;;;;;;;;;5.70;90.30;;;;;;5033901;28;20415;-60
2022/01/02 05:12:16;;;;;;;;;;;5.60;90.20;;;;;;5032387;28;19913;-61
2022/01/02 05:14:41;;;;;;;;;;;5.50;90.20;;;;;;5015977;28;19916;-62
2022/01/02 05:17:07;;;;;;;;;;;5.50;90.50;;;;;;5033667;28;19909;-62
2022/01/02 05:19:32;;;;;;;;;;;5.50;90.80;;;;;;5033891;28;20365;-62
2022/01/02 05:21:58;;;;;;;;;;;5.50;90.90;;;;;;5033642;28;20385;-62
2022/01/02 05:24:24;;;;;;;;;;;5.40;90.90;;;;;;5033462;28;19916;-61
2022/01/02 05:26:50;;;;;;;;;;;5.50;90.90;;;;;;5032981;28;19923;-62
2022/01/02 05:29:17;;;;;;;;;;;5.60;90.60;;;;;;5033404;28;19955;-61
2022/01/02 05:31:42;;;;;;;;;;;6.00;90.00;;;;;;5033567;28;19954;-61
2022/01/02 05:34:08;;;;;;;;;;;6.20;88.70;;;;;;5033477;28;20008;-61
2022/01/02 05:36:33;;;;;;;;;;;6.10;88.40;;;;;;5033150;28;19917;-61
2022/01/02 05:38:59;;;;;;;;;;;6.10;88.00;;;;;;5033500;28;19921;-61
2022/01/02 05:41:27;;;;;;;;;;;6.00;88.60;;;;;;5015871;28;19913;-61
2022/01/02 05:43:52;;;;;;;;;;;5.80;89.50;;;;;;5033510;28;19916;-61
2022/01/02 05:46:18;;;;;;;;;;;5.90;89.40;;;;;;5033389;28;19913;-61
2022/01/02 05:48:44;;;;;;;;;;;5.80;89.90;;;;;;5033176;28;19926;-61
2022/01/02 05:51:09;;;;;;;;;;;5.80;90.10;;;;;;5033294;28;19923;-61
2022/01/02 05:53:35;;;;;;;;;;;5.80;89.90;;;;;;5033266;28;19920;-62
2022/01/02 05:56:00;;;;;;;;;;;6.00;89.60;;;;;;5033245;28;19920;-62
2022/01/02 05:58:26;;;;;;;;;;;5.90;89.10;;;;;;5033277;28;19964;-61
2022/01/02 06:00:52;;;;;;;;;;;6.00;89.80;;;;;;5033231;28;19909;-61
2022/01/02 06:03:17;;;;;;;;;;;5.90;90.10;;;;;;5033184;28;20004;-62
2022/01/02 06:05:43;;;;;;;;;;;5.90;90.40;;;;;;5033040;28;20050;-61
2022/01/02 06:08:09;;;;;;;;;;;5.80;90.30;;;;;;5033256;28;19981;-61
2022/01/02 06:10:34;;;;;;;;;;;5.90;90.40;;;;;;5033154;28;20339;-65
2022/01/02 06:13:00;;;;;;;;;;;5.80;90.60;;;;;;5031777;28;19917;-61
2022/01/02 06:15:25;;;;;;;;;;;5.90;90.70;;;;;;5033150;28;19992;-62
2022/01/02 06:17:51;;;;;;;;;;;6.10;90.60;;;;;;5033165;28;20365;-61
2022/01/02 06:20:16;;;;;;;;;;;6.00;90.80;;;;;;5032865;28;19910;-61
2022/01/02 06:22:42;;;;;;;;;;;6.10;90.60;;;;;;5033148;28;19909;-61
2022/01/02 06:25:08;;;;;;;;;;;5.80;90.80;;;;;;5033088;28;20047;-62
2022/01/02 06:27:34;;;;;;;;;;;5.90;90.90;;;;;;5032946;28;19921;-62
2022/01/02 06:30:00;;;;;;;;;;;5.90;90.80;;;;;;5032958;28;20289;-61
2022/01/02 06:32:25;;;;;;;;;;;5.90;90.80;;;;;;5032906;28;19948;-61
2022/01/02 06:34:51;;;;;;;;;;;5.80;91.00;;;;;;5032754;28;20346;-61
2022/01/02 06:37:17;;;;;;;;;;;6.00;90.80;;;;;;5032920;28;19962;-61
2022/01/02 06:39:42;;;;;;;;;;;5.90;91.00;;;;;;5035982;28;20003;-61
2022/01/02 06:42:08;;;;;;;;;;;5.80;91.20;;;;;;5018865;28;20026;-61
2022/01/02 06:44:34;;;;;;;;;;;5.60;91.80;;;;;;5036617;28;19943;-61
2022/01/02 06:46:59;;;;;;;;;;;5.70;91.70;;;;;;5036552;28;20065;-61
2022/01/02 06:49:25;;;;;;;;;;;5.70;91.50;;;;;;5036469;28;20020;-61
2022/01/02 06:51:50;;;;;;;;;;;5.80;91.70;;;;;;5036266;28;19909;-62
2022/01/02 06:54:16;;;;;;;;;;;5.80;91.50;;;;;;5036428;28;19943;-61
2022/01/02 06:56:41;;;;;;;;;;;6.00;91.30;;;;;;5037894;28;20439;-61
2022/01/02 06:59:07;;;;;;;;;;;6.00;90.90;;;;;;5037089;28;19909;-66
2022/01/02 07:01:33;;;;;;;;;;;5.70;91.20;;;;;;5036311;28;19960;-69
2022/01/02 07:03:58;;;;;;;;;;;5.60;91.60;;;;;;5036004;28;20032;-62
2022/01/02 07:06:24;;;;;;;;;;;5.70;91.70;;;;;;5036037;28;20034;-73
2022/01/02 07:08:49;;;;;;;;;;;5.80;91.70;;;;;;5036064;28;19934;-65
2022/01/02 07:11:15;;;;;;;;;;;5.80;91.40;;;;;;5018320;28;19922;-62
2022/01/02 07:13:41;;;;;;;;;;;5.90;91.00;;;;;;5035986;28;20412;-64
2022/01/02 07:16:06;;;;;;;;;;;5.70;91.00;;;;;;5036044;28;19919;-61
2022/01/02 07:18:32;;;;;;;;;;;6.00;93.00;;;;;;5035841;28;20018;-61
2022/01/02 07:20:57;;;;;;;;;;;6.30;92.10;;;;;;5036423;28;19972;-63
2022/01/02 07:23:23;;;;;;;;;;;6.20;90.70;;;;;;5036012;28;20391;-62
2022/01/02 07:25:49;;;;;;;;;;;6.30;90.50;;;;;;5035669;28;19913;-60
2022/01/02 07:28:14;;;;;;;;;;;6.50;90.10;;;;;;5035652;28;19949;-60
2022/01/02 07:30:40;;;;;;;;;;;6.40;88.50;;;;;;5035559;28;19936;-64
2022/01/02 07:33:05;;;;;;;;;;;6.20;89.40;;;;;;5035565;28;19921;-62
2022/01/02 07:35:31;;;;;;;;;;;6.40;90.00;;;;;;5035493;28;20028;-61
2022/01/02 07:37:57;;;;;;;;;;;6.10;88.90;;;;;;5035433;28;19959;-59
2022/01/02 07:40:24;;;;;;;;;;;6.00;89.20;;;;;;5035532;28;19920;-64
2022/01/02 07:42:49;;;;;;;;;;;6.00;89.80;;;;;;5035210;28;20007;-66
2022/01/02 07:45:16;;;;;;;;;;;5.90;89.80;;;;;;5035198;28;19944;-64
2022/01/02 07:47:42;;;;;;;;;;;5.80;90.10;;;;;;5035102;28;19917;-68
2022/01/02 07:50:08;;;;;;;;;;;5.90;90.40;;;;;;5034714;28;20376;-67
2022/01/02 07:52:33;;;;;;;;;;;6.00;90.40;;;;;;5036475;28;20003;-64
2022/01/02 07:54:59;;;;;;;;;;;6.00;90.10;;;;;;5053595;28;19913;-68
2022/01/02 07:57:24;;;;;;;;;;;5.70;90.10;;;;;;5053964;28;19956;-67
2022/01/02 07:59:50;;;;;;;;;;;5.60;91.10;;;;;;5053762;28;19916;-62
2022/01/02 08:02:15;;;;;;;;;;;5.50;91.20;;;;;;5054388;28;19962;-68
2022/01/02 08:04:41;;;;;;;;;;;5.60;91.30;;;;;;5053317;28;20012;-66
2022/01/02 08:07:06;;;;;;;;;;;5.60;91.20;;;;;;5053475;28;19958;-67
2022/01/02 08:09:32;;;;;;;;;;;5.70;91.20;;;;;;5053546;28;20276;-66
2022/01/02 08:11:57;;;;;;;;;;;5.90;91.00;;;;;;5054237;28;20295;-67
2022/01/02 08:14:23;;;;;;;;;;;6.10;90.90;;;;;;5053823;28;19920;-66
2022/01/02 08:16:49;;;;;;;;;;;6.10;90.60;;;;;;5054029;28;19909;-62
2022/01/02 08:19:14;;;;;;;;;;;6.00;90.70;;;;;;5054050;28;19939;-59
2022/01/02 08:21:40;;;;;;;;;;;6.10;90.50;;;;;;5053958;28;20336;-59
2022/01/02 08:24:05;;;;;;;;;;;6.20;90.50;;;;;;5054026;28;20038;-64
2022/01/02 08:26:31;;;;;;;;;;;6.20;90.50;;;;;;5053707;28;20390;-64
2022/01/02 08:29:00;;;;;;;;;;;6.30;90.50;;;;;;5053646;28;19909;-64
2022/01/02 08:31:29;;;;;;;;;;;6.30;90.30;;;;;;5053523;28;20074;-66
2022/01/02 08:33:55;;;;;;;;;;;6.30;90.30;;;;;;5053513;28;19909;-66
2022/01/02 08:36:20;;;;;;;;;;;6.40;90.40;;;;;;5053447;28;19919;-66
2022/01/02 08:38:47;;;;;;;;;;;6.40;90.40;;;;;;5053699;28;19990;-65
2022/01/02 08:41:13;;;;;;;;;;;6.30;90.50;;;;;;5035932;28;19924;-64
2022/01/02 08:43:39;;;;;;;;;;;6.30;90.70;;;;;;5050986;28;20284;-64
2022/01/02 08:46:05;;;;;;;;;;;6.40;90.40;;;;;;5052873;28;19921;-67
2022/01/02 08:48:30;;;;;;;;;;;6.60;90.40;;;;;;5052788;28;19909;-66
2022/01/02 08:50:56;;;;;;;;;;;6.60;90.60;;;;;;5052617;28;20425;-64
2022/01/02 08:53:21;;;;;;;;;;;6.30;90.70;;;;;;5052637;28;19916;-64
2022/01/02 08:55:47;;;;;;;;;;;6.20;91.00;;;;;;5052637;28;20361;-67
2022/01/02 08:58:13;;;;;;;;;;;6.20;91.20;;;;;;5052471;28;20314;-71
2022/01/02 09:00:38;;;;;;;;;;;6.30;91.00;;;;;;5052454;28;19916;-70
2022/01/02 09:03:04;;;;;;;;;;;6.40;90.80;;;;;;5051384;28;19950;-67
2022/01/02 09:05:30;;;;;;;;;;;6.50;90.70;;;;;;5052772;28;20321;-69
2022/01/02 09:07:56;;;;;;;;;;;6.60;90.40;;;;;;5034926;28;19960;-71
2022/01/02 09:10:22;;;;;;;;;;;6.60;90.40;;;;;;5053548;28;19909;-66
2022/01/02 09:12:48;;;;;;;;;;;6.30;90.70;;;;;;5053768;28;19916;-66
2022/01/02 09:15:14;;;;;;;;;;;6.10;91.30;;;;;;5053488;28;19908;-62
2022/01/02 09:17:39;;;;;;;;;;;6.20;91.60;;;;;;5052733;28;19935;-62
2022/01/02 09:20:06;;;;;;;;;;;6.40;91.30;;;;;;5052914;28;19921;-64
2022/01/02 09:22:31;;;;;;;;;;;6.50;91.00;;;;;;5052699;28;19913;-60
2022/01/02 09:24:57;;;;;;;;;;;6.60;90.70;;;;;;5052831;28;19909;-61
2022/01/02 09:27:23;;;;;;;;;;;6.70;90.50;;;;;;5052800;28;20402;-61
2022/01/02 09:29:48;;;;;;;;;;;6.80;90.40;;;;;;5053474;28;19909;-62
2022/01/02 09:32:14;;;;;;;;;;;7.00;89.70;;;;;;5053654;28;19913;-60
2022/01/02 09:34:39;;;;;;;;;;;7.00;90.00;;;;;;5053065;28;20356;-61
2022/01/02 09:37:05;;;;;;;;;;;7.00;90.00;;;;;;5053224;28;19974;-62
2022/01/02 09:39:31;;;;;;;;;;;7.00;90.30;;;;;;5053207;28;20348;-62
2022/01/02 09:41:57;;;;;;;;;;;6.90;90.30;;;;;;5052727;28;20011;-60
2022/01/02 09:44:22;;;;;;;;;;;6.90;90.50;;;;;;5049805;28;20000;-59
2022/01/02 09:46:51;;;;;;;;;;;6.90;90.50;;;;;;5052440;28;20364;-60
2022/01/02 09:49:16;;;;;;;;;;;6.90;90.70;;;;;;5052679;28;19913;-60
2022/01/02 09:51:42;;;;;;;;;;;7.00;90.10;;;;;;5052423;28;19909;-60
2022/01/02 09:54:09;;;;;;;;;;;7.00;90.10;;;;;;5051097;28;20379;-60
2022/01/02 09:56:34;;;;;;;;;;;7.00;90.10;;;;;;5051927;28;20395;-61
2022/01/02 09:59:02;;;;;;;;;;;7.10;90.20;;;;;;5051736;28;19930;-61
2022/01/02 10:01:29;;;;;;;;;;;7.10;90.10;;;;;;5051503;28;19917;-61
2022/01/02 10:03:56;;;;;;;;;;;7.20;90.00;;;;;;5051705;28;20292;-60
2022/01/02 10:06:36;;;;;;;;;;;7.20;89.70;;;;;;5052175;28;19913;-59
2022/01/02 10:09:01;;;;;;;;;;;6.90;90.20;;;;;;5051965;28;19908;-63
2022/01/02 10:11:27;;;;;;;;;;;6.60;90.60;;;;;;5052692;28;20351;-59
2022/01/02 10:13:54;;;;;;;;;;;6.60;91.10;;;;;;5054932;28;19913;-60
2022/01/02 10:16:29;;;;;;;;;;;6.70;91.10;;;;;;5056604;28;19917;-64
2022/01/02 10:18:55;;;;;;;;;;;6.90;90.80;;;;;;5057022;28;19909;-66
2022/01/02 10:21:26;;;;;;;;;;;7.10;90.40;;;;;;5057048;28;19916;-63
2022/01/02 10:24:12;;;;;;;;;;;7.20;90.10;;;;;;5057023;28;20320;-61
2022/01/02 10:26:38;;;;;;;;;;;7.30;90.10;;;;;;5056117;28;19921;-61
2022/01/02 10:29:11;;;;;;;;;;;7.40;89.60;;;;;;5057187;28;19909;-61
2022/01/02 10:31:36;;;;;;;;;;;7.40;89.10;;;;;;5056231;28;20344;-61
2022/01/02 10:34:02;;;;;;;;;;;7.30;89.20;;;;;;5056743;28;19912;-61
2022/01/02 10:36:27;;;;;;;;;;;7.10;89.50;;;;;;5056546;28;20284;-61
2022/01/02 10:39:08;;;;;;;;;;;6.90;90.10;;;;;;5056552;28;19970;-60
2022/01/02 10:41:45;;;;;;;;;;;6.80;90.60;;;;;;5056774;28;19983;-64
2022/01/02 10:44:21;;;;;;;;;;;6.70;90.90;;;;;;5056640;28;19943;-62
2022/01/02 10:47:05;;;;;;;;;;;6.90;90.60;;;;;;5056097;28;19966;-60
2022/01/02 10:49:50;;;;;;;;;;;7.10;90.10;;;;;;5056352;28;19909;-60
2022/01/02 10:52:19;;;;;;;;;;;7.20;89.80;;;;;;5056260;28;19920;-60
2022/01/02 10:54:45;;;;;;;;;;;7.30;89.30;;;;;;5056088;28;20011;-61
2022/01/02 10:57:12;;;;;;;;;;;7.40;88.00;;;;;;5055974;28;19996;-59
2022/01/02 10:59:39;;;;;;;;;;;7.40;88.90;;;;;;5055994;28;20356;-59
2022/01/02 11:02:05;;;;;;;;;;;7.20;89.10;;;;;;5055972;28;19955;-64
2022/01/02 11:04:31;;;;;;;;;;;6.90;90.00;;;;;;5055845;28;19915;-62
2022/01/02 11:07:00;;;;;;;;;;;6.80;90.20;;;;;;5055928;28;20383;-60
2022/01/02 11:09:27;;;;;;;;;;;6.70;90.50;;;;;;5055893;28;20372;-60
2022/01/02 11:11:53;;;;;;;;;;;6.80;90.70;;;;;;5056270;28;20245;-60
2022/01/02 11:14:18;;;;;;;;;;;6.70;90.60;;;;;;5055677;28;20363;-61
2022/01/02 11:16:44;;;;;;;;;;;6.60;90.60;;;;;;5037988;28;19909;-61
2022/01/02 11:19:11;;;;;;;;;;;6.60;91.20;;;;;;5056502;28;19973;-61
2022/01/02 11:21:38;;;;;;;;;;;6.80;90.90;;;;;;5055672;28;19994;-59
2022/01/02 11:24:10;;;;;;;;;;;6.90;90.70;;;;;;5055364;28;19915;-60
2022/01/02 11:26:54;;;;;;;;;;;7.10;90.30;;;;;;5054636;28;19916;-61
2022/01/02 11:29:29;;;;;;;;;;;7.30;90.20;;;;;;5055728;28;19908;-63
2022/01/02 11:31:55;;;;;;;;;;;7.50;89.00;;;;;;5055454;28;19909;-67
2022/01/02 11:34:21;;;;;;;;;;;7.50;88.50;;;;;;5055516;28;19991;-60
2022/01/02 11:36:46;;;;;;;;;;;7.50;88.50;;;;;;5054673;28;20014;-61
2022/01/02 11:39:12;;;;;;;;;;;7.60;88.10;;;;;;5054456;28;19927;-63
2022/01/02 11:41:37;;;;;;;;;;;7.30;88.00;;;;;;5054412;28;19908;-62
2022/01/02 11:44:08;;;;;;;;;;;7.40;89.00;;;;;;5054664;28;20091;-60
2022/01/02 11:46:38;;;;;;;;;;;7.50;89.00;;;;;;5054645;28;19939;-61
2022/01/02 11:49:25;;;;;;;;;;;7.40;88.60;;;;;;5054398;28;20141;-66
2022/01/02 11:51:55;;;;;;;;;;;7.50;88.80;;;;;;5054497;28;19912;-64
2022/01/02 11:54:31;;;;;;;;;;;7.50;89.10;;;;;;5055083;28;19909;-64
2022/01/02 11:57:00;;;;;;;;;;;7.50;89.00;;;;;;5052121;28;20341;-59
2022/01/02 11:59:44;;;;;;;;;;;7.20;90.20;;;;;;5054343;28;19912;-64
2022/01/02 12:02:12;;;;;;;;;;;7.20;90.60;;;;;;5054190;28;19908;-59
2022/01/02 12:04:56;;;;;;;;;;;7.50;90.40;;;;;;5054280;28;19917;-59
2022/01/02 12:07:37;;;;;;;;;;;7.70;90.10;;;;;;5052996;28;20438;-69
2022/01/02 12:10:22;;;;;;;;;;;7.80;89.60;;;;;;5054072;28;19996;-64
2022/01/02 12:13:00;;;;;;;;;;;7.90;89.50;;;;;;5054145;28;19909;-68
2022/01/02 12:15:31;;;;;;;;;;;8.00;89.50;;;;;;5053923;28;19917;-65
2022/01/02 12:18:16;;;;;;;;;;;8.00;89.50;;;;;;5054175;28;19908;-66
2022/01/02 12:20:51;;;;;;;;;;;8.00;89.50;;;;;;5053966;28;20011;-71
2022/01/02 12:23:35;;;;;;;;;;;8.00;89.70;;;;;;5053730;28;19909;-63
2022/01/02 12:26:01;;;;;;;;;;;8.10;90.00;;;;;;5053902;28;20386;-65
2022/01/02 12:28:36;;;;;;;;;;;8.10;90.00;;;;;;5053990;28;20000;-67
2022/01/02 12:31:03;;;;;;;;;;;8.20;89.80;;;;;;5053745;28;19948;-66
2022/01/02 12:33:30;;;;;;;;;;;8.30;89.80;;;;;;5053791;28;19956;-71
2022/01/02 12:35:55;;;;;;;;;;;8.40;89.50;;;;;;5053493;28;20272;-73
2022/01/02 12:38:21;;;;;;;;;;;8.40;89.40;;;;;;5053462;28;19932;-72
2022/01/02 12:40:49;;;;;;;;;;;8.40;89.50;;;;;;5053666;28;19909;-64
2022/01/02 12:43:22;;;;;;;;;;;8.40;89.00;;;;;;5053274;28;19909;-62
2022/01/02 12:45:53;;;;;;;;;;;8.50;89.40;;;;;;5053254;28;20379;-66
2022/01/02 12:48:30;;;;;;;;;;;8.50;89.20;;;;;;5053368;28;20007;-65
2022/01/02 12:51:06;;;;;;;;;;;8.60;89.20;;;;;;5053383;28;19952;-67
2022/01/02 12:53:33;;;;;;;;;;;8.60;88.90;;;;;;5053234;28;20054;-64
2022/01/02 12:55:59;;;;;;;;;;;8.60;88.90;;;;;;5053232;28;20315;-65
2022/01/02 12:58:24;;;;;;;;;;;8.60;88.70;;;;;;5053118;28;20012;-64
2022/01/02 13:00:50;;;;;;;;;;;8.70;88.70;;;;;;5062833;28;19940;-66
2022/01/02 13:03:16;;;;;;;;;;;8.70;88.80;;;;;;5058934;28;19909;-63
2022/01/02 13:05:48;;;;;;;;;;;8.70;88.90;;;;;;5062606;28;19921;-64
2022/01/02 13:08:21;;;;;;;;;;;8.70;89.00;;;;;;5072842;28;19917;-64
2022/01/02 13:10:47;;;;;;;;;;;8.80;88.60;;;;;;5066831;28;19916;-68
2022/01/02 13:13:25;;;;;;;;;;;8.80;88.70;;;;;;5056067;28;20399;-63
2022/01/02 13:15:51;;;;;;;;;;;8.80;88.80;;;;;;5054819;28;19939;-67
2022/01/02 13:18:16;;;;;;;;;;;8.90;88.60;;;;;;5058481;28;19919;-65
2022/01/02 13:20:43;;;;;;;;;;;8.90;88.70;;;;;;5055954;28;20284;-68
2022/01/02 13:23:08;;;;;;;;;;;8.90;88.40;;;;;;5040362;28;20357;-65
2022/01/02 13:25:38;;;;;;;;;;;8.90;88.30;;;;;;5033228;28;19909;-62
2022/01/02 13:28:08;;;;;;;;;;;8.90;88.70;;;;;;5033809;28;19917;-60
2022/01/02 13:30:38;;;;;;;;;;;9.10;88.10;;;;;;5054639;28;19935;-62
2022/01/02 13:33:14;;;;;;;;;;;9.10;87.90;;;;;;5051201;28;19913;-62
2022/01/02 13:35:40;;;;;;;;;;;9.10;88.20;;;;;;5055267;28;19917;-62
2022/01/02 13:38:06;;;;;;;;;;;9.00;88.50;;;;;;5052772;28;20059;-62
2022/01/02 13:40:33;;;;;;;;;;;9.00;88.60;;;;;;5072003;28;19939;-65
2022/01/02 13:43:06;;;;;;;;;;;9.00;88.60;;;;;;5072052;28;19957;-63
2022/01/02 13:45:33;;;;;;;;;;;9.10;88.70;;;;;;5072328;28;19909;-63
2022/01/02 13:48:18;;;;;;;;;;;9.00;88.70;;;;;;5049567;28;19960;-64
2022/01/02 13:50:45;;;;;;;;;;;9.10;88.70;;;;;;5052074;28;19909;-62
2022/01/02 13:53:17;;;;;;;;;;;9.10;88.80;;;;;;5051669;28;20375;-62
2022/01/02 13:55:45;;;;;;;;;;;9.00;89.20;;;;;;5050866;28;20457;-59
2022/01/02 13:58:17;;;;;;;;;;;9.00;90.00;;;;;;5050656;28;20030;-61
2022/01/02 14:00:45;;;;;;;;;;;8.80;90.00;;;;;;5050801;28;20284;-62
2022/01/02 14:03:30;;;;;;;;;;;8.70;90.20;;;;;;5049856;28;19912;-64
2022/01/02 14:05:56;;;;;;;;;;;8.70;90.20;;;;;;5051075;28;19991;-62
2022/01/02 14:08:22;;;;;;;;;;;8.80;90.00;;;;;;5056383;28;19952;-62
2022/01/02 14:11:01;;;;;;;;;;;9.00;89.50;;;;;;5052216;28;20406;-64
2022/01/02 14:13:26;;;;;;;;;;;9.10;88.90;;;;;;5050643;28;19944;-64
2022/01/02 14:16:02;;;;;;;;;;;9.40;87.70;;;;;;5051104;28;19963;-61
2022/01/02 14:18:28;;;;;;;;;;;9.40;87.00;;;;;;5050593;28;19912;-63
2022/01/02 14:21:00;;;;;;;;;;;9.50;86.80;;;;;;5051097;28;19916;-59
2022/01/02 14:23:27;;;;;;;;;;;9.60;86.10;;;;;;5050541;28;20392;-65
2022/01/02 14:25:52;;;;;;;;;;;9.50;86.70;;;;;;5050809;28;19909;-64
2022/01/02 14:28:18;;;;;;;;;;;9.50;87.20;;;;;;5059761;28;20379;-68
2022/01/02 14:30:44;;;;;;;;;;;9.60;86.80;;;;;;5050641;28;19938;-65
2022/01/02 14:33:09;;;;;;;;;;;9.50;86.70;;;;;;5052666;28;19920;-62
2022/01/02 14:35:36;;;;;;;;;;;9.60;86.30;;;;;;5050390;28;20336;-61
2022/01/02 14:38:01;;;;;;;;;;;9.60;86.50;;;;;;5050454;28;20349;-63
2022/01/02 14:40:27;;;;;;;;;;;9.60;86.90;;;;;;5050518;28;19916;-63